TFM - Tactical Decision Aid
ID: Runway Winds: CIG/VIS Threshold:

KMAF - Midland Intl, TX, US

Updated at: 1507 UTC 22 Apr 2021
Latest TAF at: 1220 UTC 22 Apr 2021

TAF Board

Time<<23/04Z 23/05Z 23/06Z 23/07Z 23/08Z 23/09Z 23/10Z 23/11Z 23/12Z 23/13Z 23/14Z 23/15Z 23/16Z>>
Type PRVL PRVL PRVL PRVL PRVL PRVL PRVL PRVL
VIS >6 >6 >6 >6 >6 >6 >6 >6
CIG 250 250 15 15 15 15 15 15
Cover BKN BKN BKN BKN BKN BKN BKN BKN
FltCat VFR VFR MVFR MVFR MVFR MVFR MVFR MVFR
WX -- -- -- -- -- -- -- --
WDir 170 170 170 170 170 170 170 170
WSpd 14 14 11 11 11 11 11 11
WGst 22 22 -- -- -- -- -- --

TDA Impact Legend

  None Marginal Slight Moderate High
Visibility (sm) >5 3≤X≤5 2≤X<3 0.5≤X<2 <0.5
Ceiling (100 ft) >30 10≤X≤30 6≤X<10 2≤X<6 <2
Wind Speed (kt) <15 15≤X<25 25≤X<30 ≥30
Wind Gust (kt) <15 15≤X<25 25≤X<35 ≥35
Weather No Wx Reported VCTS -TS,-FZRA TS,FZRA +TS,+FZRA
TAF
KMAF 221220Z 2212/2312 10010KT P6SM SCT035
  TEMPO 2212/2214 BKN025
  FM221400 12013G21KT P6SM OVC030
  FM221900 17014G22KT P6SM SCT040 BKN250
  FM230600 17011KT P6SM BKN015


Radar Display
Forecast Discussion